Celtic Spirit — MSGH4 — position and weather

sailwx.info

Track history (hours):
 
Tides and Currents Weather Stations Pressure Air Temp Water Temp Dewpoint Dewpoint Depression Visibility Wind Speed Wind Dir Waves Ship Positions

Celtic Spirit

Last reported at 2015-Aug-21 07:23 UTC. Time now 2015-Aug-27 21:29 UTC.
Position N 38°42' W 009°10'.

Length 20 m.

Type: Pleasure craft. MMSI: 235010910.

Date/timePositionNaut miles runAvg speedWind from/ knotsBaromVisibWave heightAir tempDewpointWater temp
2015-Aug-21 07:23N 38°42' W 009°10'0 0.0
2015-Aug-21 06:29N 38°42' W 009°10'0 0.0
2015-Aug-21 05:11N 38°42' W 009°10'0 0.0
2015-Aug-21 02:29N 38°42' W 009°10'0 0.0
2015-Aug-21 01:08N 38°42' W 009°10'0 0.0
2015-Aug-20 20:23N 38°42' W 009°10'0 0.0
2015-Aug-20 18:17N 38°42' W 009°10'0 0.0
2015-Aug-20 15:23N 38°42' W 009°10'0 0.0
2015-Aug-20 08:05N 38°42' W 009°10'0 0.0
2015-Aug-20 03:08N 38°42' W 009°10'0 0.0
2015-Aug-19 22:17N 38°42' W 009°10'0 0.0
2015-Aug-19 18:11N 38°42' W 009°10'0 0.0
2015-Aug-19 16:12N 38°42' W 009°10'0 0.4
2015-Aug-19 15:33N 38°42' W 009°10'9 9.1
2015-Aug-19 14:33N 38°38' W 009°20'8 8.2
2015-Aug-19 13:32N 38°30' W 009°18'8 8.1
2015-Aug-19 12:33N 38°22' W 009°16'8 7.6
2015-Aug-19 11:33N 38°15' W 009°13'8 7.7
2015-Aug-19 10:33N 38°08' W 009°07'8 7.8
2015-Aug-19 09:33N 38°02' W 009°01'8 7.9
2015-Aug-19 08:33N 37°56' W 008°55'2 2.1
2015-Aug-19 07:32N 37°57' W 008°52'0 0.0
2015-Aug-19 06:32N 37°57' W 008°52'0 0.0
2015-Aug-19 05:32N 37°57' W 008°52'0 0.0
2015-Aug-19 04:32N 37°57' W 008°52'0 0.0
2015-Aug-19 03:32N 37°57' W 008°52'0 0.0
2015-Aug-19 02:32N 37°57' W 008°52'0 0.0
2015-Aug-19 01:32N 37°57' W 008°52'0 0.0
2015-Aug-19 00:33N 37°57' W 008°52'0 0.0
2015-Aug-18 23:33N 37°57' W 008°52'0 0.0
2015-Aug-18 22:33N 37°57' W 008°52'4 4.4
2015-Aug-18 21:33N 37°53' W 008°54'8 7.9
2015-Aug-18 20:33N 37°45' W 008°56'8 7.6
2015-Aug-18 19:33N 37°38' W 008°58'11 7.3
2015-Aug-18 18:06N 37°27' W 009°00'28 5.1
2015-Aug-18 12:33N 37°02' W 008°43'8 7.4
2015-Aug-18 11:33N 37°05' W 008°34'  
Track history (hours):
 
Tides and Currents Weather Stations Pressure Air Temp Water Temp Dewpoint Dewpoint Depression Visibility Wind Speed Wind Dir Waves Ship Positions

Celtic Spirit

Last reported at 2015-Aug-21 07:23 UTC. Time now 2015-Aug-27 21:29 UTC.
Position N 38°42' W 009°10'.

Length 20 m.

Type: Pleasure craft. MMSI: 235010910.

Date/timePositionNaut miles runAvg speedWind from/ knotsBaromVisibWave heightAir tempDewpointWater temp
2015-Aug-21 07:23N 38°42' W 009°10'0 0.0
2015-Aug-21 06:29N 38°42' W 009°10'0 0.0
2015-Aug-21 05:11N 38°42' W 009°10'0 0.0
2015-Aug-21 02:29N 38°42' W 009°10'0 0.0
2015-Aug-21 01:08N 38°42' W 009°10'0 0.0
2015-Aug-20 20:23N 38°42' W 009°10'0 0.0
2015-Aug-20 18:17N 38°42' W 009°10'0 0.0
2015-Aug-20 15:23N 38°42' W 009°10'0 0.0
2015-Aug-20 08:05N 38°42' W 009°10'0 0.0
2015-Aug-20 03:08N 38°42' W 009°10'0 0.0
2015-Aug-19 22:17N 38°42' W 009°10'0 0.0
2015-Aug-19 18:11N 38°42' W 009°10'0 0.0
2015-Aug-19 16:12N 38°42' W 009°10'0 0.4
2015-Aug-19 15:33N 38°42' W 009°10'9 9.1
2015-Aug-19 14:33N 38°38' W 009°20'8 8.2
2015-Aug-19 13:32N 38°30' W 009°18'8 8.1
2015-Aug-19 12:33N 38°22' W 009°16'8 7.6
2015-Aug-19 11:33N 38°15' W 009°13'8 7.7
2015-Aug-19 10:33N 38°08' W 009°07'8 7.8
2015-Aug-19 09:33N 38°02' W 009°01'8 7.9
2015-Aug-19 08:33N 37°56' W 008°55'2 2.1
2015-Aug-19 07:32N 37°57' W 008°52'0 0.0
2015-Aug-19 06:32N 37°57' W 008°52'0 0.0
2015-Aug-19 05:32N 37°57' W 008°52'0 0.0
2015-Aug-19 04:32N 37°57' W 008°52'0 0.0
2015-Aug-19 03:32N 37°57' W 008°52'0 0.0
2015-Aug-19 02:32N 37°57' W 008°52'0 0.0
2015-Aug-19 01:32N 37°57' W 008°52'0 0.0
2015-Aug-19 00:33N 37°57' W 008°52'0 0.0
2015-Aug-18 23:33N 37°57' W 008°52'0 0.0
2015-Aug-18 22:33N 37°57' W 008°52'4 4.4
2015-Aug-18 21:33N 37°53' W 008°54'8 7.9
2015-Aug-18 20:33N 37°45' W 008°56'8 7.6
2015-Aug-18 19:33N 37°38' W 008°58'11 7.3
2015-Aug-18 18:06N 37°27' W 009°00'28 5.1
2015-Aug-18 12:33N 37°02' W 008°43'8 7.4
2015-Aug-18 11:33N 37°05' W 008°34'  

Dump ship's entire track history